Current Weather Conditions: station 62129

sailwx.info

Wind from 100 at 24 knots

Air temperature 8.8° C
Dewpoint 5.0° C

Last reported at 2019-Nov-11 21:00 UTC.
Time now 2019-Nov-11 22:33 UTC

Location: N 58°24' E 000°18'.
View on Google Maps.

See reports from other nearby stations

  
Tides and Currents Weather Stations Pressure Air Temp Water Temp Dewpoint Dewpoint Depression Visibility Wind Speed Wind Dir Waves Ship Positions
date/time (UTC)wind fromknots sea level pressurealtimeterstation pressurevisibilityair tempwater tempwave heightnotes
2019-Nov-11 21:00 100 24 8.8
2019-Nov-11 20:00 110 21 8.7
2019-Nov-11 19:00 110 20 8.7
2019-Nov-11 18:00 120 20 8.4
2019-Nov-11 17:00 120 20 8.4
2019-Nov-11 16:00 120 22 8.2
2019-Nov-11 15:00 120 26 8.1
2019-Nov-11 14:00 130 26 7.9
2019-Nov-11 13:00 120 27 7.7
2019-Nov-11 12:00 120 27 7.5
2019-Nov-11 11:00 130 27 7.2
2019-Nov-11 10:00 120 27 6.9
2019-Nov-11 09:00 130 24 6.4
2019-Nov-11 08:00 130 22 6.1
2019-Nov-11 07:00 130 22 6.1
2019-Nov-11 06:00 130 21 5.5
2019-Nov-11 05:00 130 20 5.4
2019-Nov-11 04:00 130 19 5.7
2019-Nov-11 03:00 130 18 5.8
2019-Nov-11 02:00 130 17 6.0
2019-Nov-11 01:00 130 14 5.9
2019-Nov-11 00:00 140 13 6.2
2019-Nov-10 23:00 130 11 5.8
2019-Nov-10 22:00 150 13 5.6
2019-Nov-10 21:00 110 9 5.8
2019-Nov-10 20:00 100 8 5.5
2019-Nov-10 19:00 090 8 5.4
2019-Nov-10 18:00 080 8 5.4
2019-Nov-10 17:00 070 8 5.5
2019-Nov-10 16:00 060 8 5.5
2019-Nov-10 15:00 050 7 5.7
2019-Nov-10 14:00 050 13 5.9
2019-Nov-10 13:00 050 13 6.0
2019-Nov-10 12:00 040 15 6.5
2019-Nov-10 11:00 050 15 6.3
2019-Nov-10 10:00 040 20 6.5
2019-Nov-10 09:00 040 21 6.3
2019-Nov-10 08:00 030 15 6.2
2019-Nov-10 07:00 040 18 6.1
2019-Nov-10 06:00 030 17 6.1
2019-Nov-10 05:00 040 19 6.0
2019-Nov-10 04:00 030 14 6.2
2019-Nov-10 03:00 010 13 6.9
2019-Nov-10 02:00 030 13 6.2
2019-Nov-10 01:00 060 13 5.5
2019-Nov-10 00:00 040 12 6.0
2019-Nov-09 23:00 050 12 5.7
2019-Nov-09 22:00 040 11 5.6